Time,TemperatureF,DewpointF,PressureIn,WindDirection,WindDirectionDegrees,WindSpeedMPH,WindSpeedGustMPH,Humidity,HourlyPrecipIn,Conditions,Clouds,dailyrainin,SolarRadiationWatts/m^2,SoftwareType,DateUTC
2013-01-02 00:00:00,45.9,45.6,30.03,West,265,0.0,1.0,99,0.00,,,1.00,0,Wunderground v.1.15,2013-01-02 05:00:00,
2013-01-02 00:02:00,45.9,45.6,30.03,West,265,0.0,0.0,99,0.06,,,0.00,0,Wunderground v.1.15,2013-01-02 05:02:00,
2013-01-02 00:03:00,45.9,45.6,30.02,West,265,0.0,0.0,99,0.06,,,0.01,0,Wunderground v.1.15,2013-01-02 05:03:00,
2013-01-02 00:08:00,45.8,45.5,30.03,West,265,0.0,0.0,99,0.06,,,0.01,0,Wunderground v.1.15,2013-01-02 05:08:00,
2013-01-02 00:11:00,45.8,45.5,30.02,West,265,0.0,0.0,99,0.06,,,0.01,0,Wunderground v.1.15,2013-01-02 05:11:00,
2013-01-02 00:17:00,45.7,45.4,30.02,West,265,0.0,0.0,99,0.04,,,0.01,0,Wunderground v.1.15,2013-01-02 05:17:00,
2013-01-02 00:22:00,45.6,45.3,30.02,West,265,0.0,0.0,99,0.00,,,0.01,0,Wunderground v.1.15,2013-01-02 05:22:00,
2013-01-02 00:28:00,45.5,45.2,30.01,West,265,0.0,1.0,99,0.00,,,0.01,0,Wunderground v.1.15,2013-01-02 05:28:00,
2013-01-02 00:34:00,45.5,45.2,30.02,West,265,0.0,0.0,99,0.00,,,0.01,0,Wunderground v.1.15,2013-01-02 05:34:00,
2013-01-02 00:40:00,45.5,45.2,30.02,West,265,0.0,0.0,99,0.00,,,0.01,0,Wunderground v.1.15,2013-01-02 05:40:00,
2013-01-02 00:46:00,45.4,45.1,30.02,West,265,0.0,0.0,99,0.00,,,0.01,0,Wunderground v.1.15,2013-01-02 05:46:00,
2013-01-02 00:52:00,45.3,45.0,30.02,WNW,302,0.0,3.0,99,0.00,,,0.01,0,Wunderground v.1.15,2013-01-02 05:52:00,
2013-01-02 00:58:00,45.3,45.0,30.01,WNW,288,0.0,4.0,99,0.00,,,0.01,0,Wunderground v.1.15,2013-01-02 05:58:00,
2013-01-02 01:04:00,45.4,45.1,30.02,WNW,296,4.0,5.0,99,0.00,,,0.01,0,Wunderground v.1.15,2013-01-02 06:04:00,
2013-01-02 01:10:00,45.4,45.1,30.02,WNW,284,5.0,5.0,99,0.00,,,0.01,0,Wunderground v.1.15,2013-01-02 06:10:00,
2013-01-02 01:16:00,45.4,45.1,30.01,West,264,2.0,5.0,99,0.00,,,0.01,0,Wunderground v.1.15,2013-01-02 06:16:00,
2013-01-02 01:22:00,45.4,45.1,30.01,WNW,296,4.0,4.0,99,0.00,,,0.01,0,Wunderground v.1.15,2013-01-02 06:22:00,
2013-01-02 01:27:00,45.3,45.0,30.01,WNW,300,3.0,7.0,99,0.00,,,0.01,0,Wunderground v.1.15,2013-01-02 06:27:00,
2013-01-02 01:33:00,45.2,44.9,30.02,NW,321,7.0,7.0,99,0.00,,,0.01,0,Wunderground v.1.15,2013-01-02 06:33:00,
2013-01-02 01:38:00,45.2,44.9,30.03,West,279,3.0,7.0,99,0.00,,,0.01,0,Wunderground v.1.15,2013-01-02 06:38:00,
2013-01-02 01:44:00,45.1,44.8,30.02,West,270,6.0,6.0,99,0.00,,,0.01,0,Wunderground v.1.15,2013-01-02 06:44:00,
2013-01-02 01:50:00,45.0,44.7,30.03,NW,305,4.0,6.0,99,0.00,,,0.01,0,Wunderground v.1.15,2013-01-02 06:50:00,
2013-01-02 01:56:00,45.0,44.7,30.03,WNW,291,5.0,13.0,99,0.00,,,0.01,0,Wunderground v.1.15,2013-01-02 06:56:00,
2013-01-02 02:01:00,45.0,44.7,30.04,North,355,5.0,6.0,99,0.00,,,0.01,0,Wunderground v.1.15,2013-01-02 07:01:00,
2013-01-02 02:06:00,44.8,44.3,30.04,NNW,339,4.0,10.0,98,0.00,,,0.01,0,Wunderground v.1.15,2013-01-02 07:06:00,
2013-01-02 02:11:00,44.3,43.8,30.05,NW,324,10.0,10.0,98,0.00,,,0.01,0,Wunderground v.1.15,2013-01-02 07:11:00,
2013-01-02 02:16:00,43.7,43.2,30.06,NNW,334,8.0,10.0,98,0.00,,,0.01,0,Wunderground v.1.15,2013-01-02 07:16:00,
2013-01-02 02:21:00,43.2,42.7,30.05,West,275,7.0,8.0,98,0.00,,,0.01,0,Wunderground v.1.15,2013-01-02 07:21:00,
2013-01-02 02:26:00,42.9,42.4,30.06,NW,323,3.0,8.0,98,0.00,,,0.01,0,Wunderground v.1.15,2013-01-02 07:26:00,
2013-01-02 02:31:00,42.7,41.9,30.07,NNW,336,3.0,4.0,97,0.00,,,0.01,0,Wunderground v.1.15,2013-01-02 07:31:00,
2013-01-02 02:36:00,42.6,41.8,30.07,NW,319,0.0,5.0,97,0.00,,,0.01,0,Wunderground v.1.15,2013-01-02 07:36:00,
2013-01-02 02:41:00,42.6,41.8,30.06,NW,319,0.0,2.0,97,0.00,,,0.01,0,Wunderground v.1.15,2013-01-02 07:41:00,
2013-01-02 02:46:00,42.5,41.7,30.06,WNW,302,6.0,6.0,97,0.00,,,0.01,0,Wunderground v.1.15,2013-01-02 07:46:00,
2013-01-02 02:51:00,42.4,41.6,30.06,WNW,303,0.0,3.0,97,0.00,,,0.01,0,Wunderground v.1.15,2013-01-02 07:51:00,
2013-01-02 02:57:00,42.3,41.5,30.06,WNW,293,5.0,6.0,97,0.00,,,0.01,0,Wunderground v.1.15,2013-01-02 07:57:00,
2013-01-02 03:02:00,42.0,40.9,30.06,WNW,290,4.0,7.0,96,0.00,,,0.01,0,Wunderground v.1.15,2013-01-02 08:02:00,
2013-01-02 03:07:00,41.8,40.7,30.07,WNW,292,1.0,7.0,96,0.00,,,0.01,0,Wunderground v.1.15,2013-01-02 08:07:00,
2013-01-02 03:12:00,41.7,40.6,30.07,NNW,345,8.0,8.0,96,0.00,,,0.01,0,Wunderground v.1.15,2013-01-02 08:12:00,
2013-01-02 03:17:00,41.5,40.4,30.07,NW,314,3.0,9.0,96,0.00,,,0.01,0,Wunderground v.1.15,2013-01-02 08:17:00,
2013-01-02 03:22:00,41.3,40.2,30.07,WSW,248,3.0,7.0,96,0.00,,,0.01,0,Wunderground v.1.15,2013-01-02 08:22:00,
2013-01-02 03:27:00,41.3,40.2,30.07,WNW,292,3.0,7.0,96,0.00,,,0.01,0,Wunderground v.1.15,2013-01-02 08:27:00,
2013-01-02 03:32:00,41.2,40.1,30.07,West,261,2.0,5.0,96,0.00,,,0.01,0,Wunderground v.1.15,2013-01-02 08:32:00,
2013-01-02 03:37:00,41.1,40.0,30.06,NW,308,4.0,7.0,96,0.00,,,0.01,0,Wunderground v.1.15,2013-01-02 08:37:00,
2013-01-02 03:42:00,41.0,39.9,30.07,West,279,2.0,7.0,96,0.00,,,0.01,0,Wunderground v.1.15,2013-01-02 08:42:00,
2013-01-02 03:47:00,41.0,39.7,30.07,West,280,1.0,7.0,95,0.00,,,0.01,0,Wunderground v.1.15,2013-01-02 08:47:00,
2013-01-02 03:52:00,41.0,39.7,30.08,West,277,2.0,5.0,95,0.00,,,0.01,0,Wunderground v.1.15,2013-01-02 08:52:00,
2013-01-02 03:57:00,41.0,39.7,30.07,NW,314,2.0,5.0,95,0.00,,,0.01,0,Wunderground v.1.15,2013-01-02 08:57:00,
2013-01-02 04:02:00,41.1,39.8,30.06,West,273,0.0,2.0,95,0.00,,,0.01,0,Wunderground v.1.15,2013-01-02 09:02:00,
2013-01-02 04:07:00,41.1,39.8,30.06,West,273,0.0,2.0,95,0.00,,,0.01,0,Wunderground v.1.15,2013-01-02 09:07:00,
2013-01-02 04:12:00,41.1,39.8,30.07,West,273,0.0,1.0,95,0.00,,,0.01,0,Wunderground v.1.15,2013-01-02 09:12:00,
2013-01-02 04:17:00,41.1,39.8,30.06,WSW,239,2.0,3.0,95,0.00,,,0.01,0,Wunderground v.1.15,2013-01-02 09:17:00,
2013-01-02 04:22:00,41.0,39.7,30.06,SSE,153,0.0,1.0,95,0.00,,,0.01,0,Wunderground v.1.15,2013-01-02 09:22:00,
2013-01-02 04:27:00,41.0,39.7,30.06,SSE,153,0.0,2.0,95,0.00,,,0.01,0,Wunderground v.1.15,2013-01-02 09:27:00,
2013-01-02 04:32:00,41.0,39.7,30.05,SSE,159,0.0,4.0,95,0.00,,,0.01,0,Wunderground v.1.15,2013-01-02 09:32:00,
2013-01-02 04:37:00,41.0,39.7,30.05,SSE,157,0.0,4.0,95,0.00,,,0.01,0,Wunderground v.1.15,2013-01-02 09:37:00,
2013-01-02 04:42:00,41.0,39.9,30.06,West,274,0.0,4.0,96,0.00,,,0.01,0,Wunderground v.1.15,2013-01-02 09:42:00,
2013-01-02 04:47:00,40.9,39.8,30.06,West,274,0.0,4.0,96,0.00,,,0.01,0,Wunderground v.1.15,2013-01-02 09:47:00,
2013-01-02 04:52:00,40.9,39.8,30.06,West,274,0.0,1.0,96,0.00,,,0.01,0,Wunderground v.1.15,2013-01-02 09:52:00,
2013-01-02 04:57:00,40.8,39.7,30.06,West,274,0.0,1.0,96,0.00,,,0.01,0,Wunderground v.1.15,2013-01-02 09:57:00,
2013-01-02 05:02:00,40.7,39.6,30.05,West,274,0.0,0.0,96,0.00,,,0.01,0,Wunderground v.1.15,2013-01-02 10:02:00,
2013-01-02 05:07:00,40.5,39.2,30.05,West,275,2.0,3.0,95,0.00,,,0.01,0,Wunderground v.1.15,2013-01-02 10:07:00,
2013-01-02 05:12:00,40.3,39.0,30.05,West,275,0.0,1.0,95,0.00,,,0.01,0,Wunderground v.1.15,2013-01-02 10:12:00,
2013-01-02 05:17:00,40.2,38.9,30.06,West,275,0.0,1.0,95,0.00,,,0.01,0,Wunderground v.1.15,2013-01-02 10:17:00,
2013-01-02 05:22:00,40.0,38.7,30.06,West,275,0.0,0.0,95,0.00,,,0.01,0,Wunderground v.1.15,2013-01-02 10:22:00,
2013-01-02 05:27:00,39.8,38.5,30.06,West,275,0.0,0.0,95,0.00,,,0.01,0,Wunderground v.1.15,2013-01-02 10:27:00,
2013-01-02 05:32:00,39.6,38.3,30.05,West,275,0.0,0.0,95,0.00,,,0.01,0,Wunderground v.1.15,2013-01-02 10:32:00,
2013-01-02 05:37:00,39.4,38.4,30.06,West,275,0.0,0.0,96,0.00,,,0.01,0,Wunderground v.1.15,2013-01-02 10:37:00,
2013-01-02 05:42:00,39.3,38.0,30.06,West,277,0.0,2.0,95,0.00,,,0.01,0,Wunderground v.1.15,2013-01-02 10:42:00,
2013-01-02 05:47:00,39.4,38.4,30.06,NNW,345,1.0,3.0,96,0.00,,,0.01,0,Wunderground v.1.15,2013-01-02 10:47:00,
2013-01-02 05:52:00,39.4,38.4,30.07,NNW,335,3.0,6.0,96,0.00,,,0.01,0,Wunderground v.1.15,2013-01-02 10:52:00,
2013-01-02 05:58:00,39.5,38.5,30.07,NNW,346,3.0,6.0,96,0.00,,,0.01,0,Wunderground v.1.15,2013-01-02 10:58:00,
2013-01-02 06:03:00,39.4,38.4,30.07,NW,311,5.0,9.0,96,0.00,,,0.01,0,Wunderground v.1.15,2013-01-02 11:03:00,
2013-01-02 06:08:00,39.1,38.1,30.07,NNE,25,7.0,11.0,96,0.00,,,0.01,0,Wunderground v.1.15,2013-01-02 11:08:00,
2013-01-02 06:13:00,38.9,37.9,30.08,NW,320,5.0,9.0,96,0.00,,,0.01,0,Wunderground v.1.15,2013-01-02 11:13:00,
2013-01-02 06:18:00,38.5,37.5,30.08,WNW,299,6.0,9.0,96,0.00,,,0.01,0,Wunderground v.1.15,2013-01-02 11:18:00,
2013-01-02 06:23:00,38.2,37.2,30.08,NW,313,5.0,12.0,96,0.00,,,0.01,0,Wunderground v.1.15,2013-01-02 11:23:00,
2013-01-02 06:28:00,38.0,37.0,30.08,NW,305,3.0,12.0,96,0.00,,,0.01,0,Wunderground v.1.15,2013-01-02 11:28:00,
2013-01-02 06:33:00,37.9,36.9,30.09,NNW,334,0.0,7.0,96,0.00,,,0.01,0,Wunderground v.1.15,2013-01-02 11:33:00,
2013-01-02 06:38:00,37.9,36.9,30.09,WNW,302,1.0,7.0,96,0.00,,,0.01,0,Wunderground v.1.15,2013-01-02 11:38:00,
2013-01-02 06:43:00,37.7,36.7,30.09,NNW,342,2.0,6.0,96,0.00,,,0.01,0,Wunderground v.1.15,2013-01-02 11:43:00,
2013-01-02 06:48:00,37.6,36.6,30.09,WNW,295,0.0,6.0,96,0.00,,,0.01,0,Wunderground v.1.15,2013-01-02 11:48:00,
2013-01-02 06:53:00,37.6,36.8,30.09,WNW,295,0.0,2.0,97,0.00,,,0.01,0,Wunderground v.1.15,2013-01-02 11:53:00,
2013-01-02 06:58:00,37.5,36.5,30.10,WNW,296,0.0,3.0,96,0.00,,,0.01,0,Wunderground v.1.15,2013-01-02 11:58:00,
2013-01-02 07:03:00,37.5,36.5,30.10,North,5,0.0,2.0,96,0.00,,,0.01,0,Wunderground v.1.15,2013-01-02 12:03:00,
2013-01-02 07:08:00,37.4,36.6,30.10,North,11,0.0,3.0,97,0.00,,,0.01,0,Wunderground v.1.15,2013-01-02 12:08:00,
2013-01-02 07:14:00,37.3,36.5,30.10,NNW,343,2.0,5.0,97,0.00,,,0.01,0,Wunderground v.1.15,2013-01-02 12:14:00,
2013-01-02 07:19:00,37.2,36.4,30.10,NW,325,3.0,5.0,97,0.00,,,0.01,0,Wunderground v.1.15,2013-01-02 12:19:00,
2013-01-02 07:24:00,37.1,36.1,30.09,NW,307,7.0,8.0,96,0.00,,,0.01,0,Wunderground v.1.15,2013-01-02 12:24:00,
2013-01-02 07:29:00,37.0,36.2,30.10,WNW,288,7.0,9.0,97,0.00,,,0.01,0,Wunderground v.1.15,2013-01-02 12:29:00,
2013-01-02 07:34:00,36.9,36.1,30.10,NW,319,3.0,5.0,97,0.00,,,0.01,0,Wunderground v.1.15,2013-01-02 12:34:00,
2013-01-02 07:39:00,36.8,36.0,30.10,WNW,289,4.0,9.0,97,0.00,,,0.01,0,Wunderground v.1.15,2013-01-02 12:39:00,
2013-01-02 07:44:00,36.8,36.0,30.12,WNW,285,4.0,16.0,97,0.00,,,0.01,0,Wunderground v.1.15,2013-01-02 12:44:00,
2013-01-02 07:49:00,36.7,35.9,30.12,NW,311,6.0,16.0,97,0.00,,,0.01,0,Wunderground v.1.15,2013-01-02 12:49:00,
2013-01-02 07:54:00,36.6,35.8,30.11,NW,306,7.0,12.0,97,0.00,,,0.01,0,Wunderground v.1.15,2013-01-02 12:54:00,
2013-01-02 07:59:00,36.5,35.7,30.11,WNW,298,3.0,12.0,97,0.00,,,0.01,0,Wunderground v.1.15,2013-01-02 12:59:00,
2013-01-02 08:04:00,36.5,35.7,30.11,WNW,294,3.0,7.0,97,0.00,,,0.01,0,Wunderground v.1.15,2013-01-02 13:04:00,
2013-01-02 08:09:00,36.5,35.7,30.12,NW,305,4.0,7.0,97,0.00,,,0.01,0,Wunderground v.1.15,2013-01-02 13:09:00,
2013-01-02 08:14:00,36.4,35.6,30.12,NW,311,3.0,6.0,97,0.00,,,0.01,0,Wunderground v.1.15,2013-01-02 13:14:00,
2013-01-02 08:19:00,36.4,35.6,30.13,WNW,297,2.0,11.0,97,0.00,,,0.01,5,Wunderground v.1.15,2013-01-02 13:19:00,
2013-01-02 08:24:00,36.4,35.6,30.13,NW,313,0.0,7.0,97,0.00,,,0.01,5,Wunderground v.1.15,2013-01-02 13:24:00,
2013-01-02 08:29:00,36.3,35.5,30.13,WNW,288,4.0,7.0,97,0.00,,,0.01,5,Wunderground v.1.15,2013-01-02 13:29:00,
2013-01-02 08:34:00,36.3,35.5,30.13,NW,304,2.0,6.0,97,0.00,,,0.01,7,Wunderground v.1.15,2013-01-02 13:34:00,
2013-01-02 08:39:00,36.3,35.5,30.13,WSW,256,7.0,8.0,97,0.00,,,0.01,12,Wunderground v.1.15,2013-01-02 13:39:00,
2013-01-02 08:44:00,36.2,35.4,30.14,WSW,257,0.0,6.0,97,0.00,,,0.01,26,Wunderground v.1.15,2013-01-02 13:44:00,
2013-01-02 08:49:00,36.3,35.5,30.13,WNW,294,0.0,6.0,97,0.00,,,0.01,14,Wunderground v.1.15,2013-01-02 13:49:00,
2013-01-02 08:54:00,36.2,35.4,30.12,WNW,301,0.0,4.0,97,0.00,,,0.01,16,Wunderground v.1.15,2013-01-02 13:54:00,
2013-01-02 08:59:00,36.2,35.4,30.14,WNW,287,2.0,7.0,97,0.00,,,0.01,25,Wunderground v.1.15,2013-01-02 13:59:00,
2013-01-02 09:04:00,36.4,35.6,30.14,WNW,282,4.0,6.0,97,0.00,,,0.01,47,Wunderground v.1.15,2013-01-02 14:04:00,
2013-01-02 09:09:00,36.4,35.4,30.13,WNW,303,4.0,8.0,96,0.00,,,0.01,39,Wunderground v.1.15,2013-01-02 14:09:00,
2013-01-02 09:14:00,36.5,35.5,30.14,NW,311,2.0,5.0,96,0.00,,,0.01,30,Wunderground v.1.15,2013-01-02 14:14:00,
2013-01-02 09:19:00,36.5,35.5,30.15,WNW,296,4.0,6.0,96,0.00,,,0.01,18,Wunderground v.1.15,2013-01-02 14:19:00,
2013-01-02 09:24:00,36.5,35.5,30.16,WNW,302,3.0,6.0,96,0.00,,,0.01,26,Wunderground v.1.15,2013-01-02 14:24:00,
2013-01-02 09:29:00,36.6,35.6,30.15,West,265,0.0,6.0,96,0.00,,,0.01,70,Wunderground v.1.15,2013-01-02 14:29:00,
2013-01-02 09:34:00,36.7,35.7,30.14,WNW,296,0.0,3.0,96,0.00,,,0.01,65,Wunderground v.1.15,2013-01-02 14:34:00,
2013-01-02 09:39:00,36.7,35.7,30.13,West,269,0.0,4.0,96,0.00,,,0.01,72,Wunderground v.1.15,2013-01-02 14:39:00,
2013-01-02 09:44:00,36.8,35.8,30.14,WNW,290,3.0,5.0,96,0.00,,,0.01,74,Wunderground v.1.15,2013-01-02 14:44:00,
2013-01-02 09:49:00,36.8,35.5,30.14,WNW,286,2.0,5.0,95,0.00,,,0.01,83,Wunderground v.1.15,2013-01-02 14:49:00,
2013-01-02 09:54:00,37.0,35.7,30.16,WNW,292,1.0,4.0,95,0.00,,,0.01,153,Wunderground v.1.15,2013-01-02 14:54:00,
2013-01-02 09:59:00,37.2,36.2,30.16,West,281,5.0,5.0,96,0.00,,,0.01,199,Wunderground v.1.15,2013-01-02 14:59:00,
2013-01-02 10:04:00,37.3,36.3,30.14,WSW,257,1.0,4.0,96,0.00,,,0.01,192,Wunderground v.1.15,2013-01-02 15:04:00,
2013-01-02 10:09:00,37.5,36.2,30.15,NW,305,3.0,4.0,95,0.00,,,0.01,151,Wunderground v.1.15,2013-01-02 15:09:00,
2013-01-02 10:14:00,37.6,36.3,30.15,West,276,3.0,4.0,95,0.00,,,0.01,121,Wunderground v.1.15,2013-01-02 15:14:00,
2013-01-02 10:20:00,37.7,36.4,30.15,WSW,250,1.0,5.0,95,0.00,,,0.01,260,Wunderground v.1.15,2013-01-02 15:20:00,
2013-01-02 10:25:00,37.9,36.6,30.16,WNW,296,4.0,4.0,95,0.00,,,0.01,120,Wunderground v.1.15,2013-01-02 15:25:00,
2013-01-02 10:30:00,38.0,36.4,30.15,NW,313,2.0,2.0,94,0.00,,,0.01,123,Wunderground v.1.15,2013-01-02 15:30:00,
2013-01-02 10:35:00,38.1,36.5,30.16,WNW,286,1.0,4.0,94,0.00,,,0.01,77,Wunderground v.1.15,2013-01-02 15:35:00,
2013-01-02 10:40:00,38.1,36.5,30.15,NW,319,0.0,2.0,94,0.00,,,0.01,155,Wunderground v.1.15,2013-01-02 15:40:00,
2013-01-02 10:45:00,38.2,36.6,30.15,NW,306,2.0,3.0,94,0.00,,,0.01,107,Wunderground v.1.15,2013-01-02 15:45:00,
2013-01-02 10:50:00,38.3,36.7,30.14,NW,306,0.0,1.0,94,0.00,,,0.01,91,Wunderground v.1.15,2013-01-02 15:50:00,
2013-01-02 10:55:00,38.4,36.8,30.15,NW,325,1.0,4.0,94,0.00,,,0.01,98,Wunderground v.1.15,2013-01-02 15:55:00,
2013-01-02 11:00:00,38.5,36.9,30.16,NW,310,0.0,2.0,94,0.00,,,0.01,97,Wunderground v.1.15,2013-01-02 16:00:00,
2013-01-02 11:05:00,38.6,37.0,30.16,NW,310,2.0,3.0,94,0.00,,,0.01,93,Wunderground v.1.15,2013-01-02 16:05:00,
2013-01-02 11:10:00,38.6,37.0,30.16,WNW,296,2.0,3.0,94,0.00,,,0.01,104,Wunderground v.1.15,2013-01-02 16:10:00,
2013-01-02 11:15:00,38.6,36.8,30.17,NW,317,2.0,3.0,93,0.00,,,0.01,111,Wunderground v.1.15,2013-01-02 16:15:00,
2013-01-02 11:20:00,38.7,36.9,30.17,NW,311,1.0,3.0,93,0.00,,,0.01,120,Wunderground v.1.15,2013-01-02 16:20:00,
2013-01-02 11:25:00,38.9,37.0,30.17,NW,315,3.0,5.0,93,0.00,,,0.01,118,Wunderground v.1.15,2013-01-02 16:25:00,
2013-01-02 11:30:00,38.9,37.0,30.17,NW,316,3.0,3.0,93,0.00,,,0.01,116,Wunderground v.1.15,2013-01-02 16:30:00,
2013-01-02 11:35:00,38.9,37.0,30.16,WNW,303,0.0,4.0,93,0.00,,,0.01,105,Wunderground v.1.15,2013-01-02 16:35:00,
2013-01-02 11:40:00,39.0,37.1,30.15,NNW,332,0.0,2.0,93,0.00,,,0.01,97,Wunderground v.1.15,2013-01-02 16:40:00,
2013-01-02 11:45:00,39.0,37.1,30.15,NW,311,2.0,5.0,93,0.00,,,0.01,105,Wunderground v.1.15,2013-01-02 16:45:00,
2013-01-02 11:50:00,39.0,36.9,30.16,NW,319,2.0,3.0,92,0.00,,,0.01,127,Wunderground v.1.15,2013-01-02 16:50:00,
2013-01-02 11:55:00,39.0,36.9,30.16,NW,313,0.0,4.0,92,0.00,,,0.01,118,Wunderground v.1.15,2013-01-02 16:55:00,
2013-01-02 12:00:00,39.2,37.3,30.16,NW,304,2.0,3.0,93,0.00,,,0.01,107,Wunderground v.1.15,2013-01-02 17:00:00,
2013-01-02 12:05:00,39.2,37.3,30.15,NW,314,2.0,4.0,93,0.00,,,0.01,128,Wunderground v.1.15,2013-01-02 17:05:00,
2013-01-02 12:10:00,39.1,37.2,30.14,NW,313,0.0,2.0,93,0.00,,,0.01,116,Wunderground v.1.15,2013-01-02 17:10:00,
2013-01-02 12:15:00,39.1,37.2,30.15,North,355,2.0,3.0,93,0.00,,,0.01,102,Wunderground v.1.15,2013-01-02 17:15:00,
2013-01-02 12:20:00,39.2,37.3,30.14,NNW,345,1.0,4.0,93,0.00,,,0.01,116,Wunderground v.1.15,2013-01-02 17:20:00,
2013-01-02 12:25:00,39.1,37.2,30.14,NNW,338,1.0,4.0,93,0.00,,,0.01,100,Wunderground v.1.15,2013-01-02 17:25:00,
2013-01-02 12:30:00,39.0,37.1,30.14,NNW,343,0.0,2.0,93,0.00,,,0.01,95,Wunderground v.1.15,2013-01-02 17:30:00,
2013-01-02 12:35:00,38.9,36.8,30.14,North,10,2.0,3.0,92,0.00,,,0.01,84,Wunderground v.1.15,2013-01-02 17:35:00,
2013-01-02 12:40:00,38.9,36.8,30.14,NNE,19,0.0,1.0,92,0.00,,,0.01,72,Wunderground v.1.15,2013-01-02 17:40:00,
2013-01-02 12:45:00,38.8,36.7,30.14,NNW,337,1.0,5.0,92,0.00,,,0.01,67,Wunderground v.1.15,2013-01-02 17:45:00,
2013-01-02 12:50:00,38.7,36.6,30.14,NNW,338,2.0,3.0,92,0.00,,,0.01,69,Wunderground v.1.15,2013-01-02 17:50:00,
2013-01-02 12:55:00,38.7,36.9,30.14,NW,304,2.0,4.0,93,0.00,,,0.01,105,Wunderground v.1.15,2013-01-02 17:55:00,
2013-01-02 13:00:00,38.7,36.9,30.13,NNW,337,2.0,3.0,93,0.00,,,0.01,98,Wunderground v.1.15,2013-01-02 18:00:00,
2013-01-02 13:05:00,38.8,36.9,30.13,NW,312,3.0,4.0,93,0.00,,,0.01,77,Wunderground v.1.15,2013-01-02 18:05:00,
2013-01-02 13:10:00,38.8,36.7,30.13,NW,320,1.0,2.0,92,0.00,,,0.01,74,Wunderground v.1.15,2013-01-02 18:10:00,
2013-01-02 13:16:00,38.8,36.7,30.12,NW,320,0.0,2.0,92,0.00,,,0.01,74,Wunderground v.1.15,2013-01-02 18:16:00,
2013-01-02 13:21:00,38.9,36.8,30.13,NW,320,0.0,0.0,92,0.00,,,0.01,63,Wunderground v.1.15,2013-01-02 18:21:00,
2013-01-02 13:26:00,38.9,36.8,30.13,NW,314,0.0,3.0,92,0.00,,,0.01,62,Wunderground v.1.15,2013-01-02 18:26:00,
2013-01-02 13:31:00,39.0,36.9,30.13,NW,314,0.0,1.0,92,0.00,,,0.01,65,Wunderground v.1.15,2013-01-02 18:31:00,
2013-01-02 13:37:00,39.0,36.9,30.12,NW,314,0.0,2.0,92,0.00,,,0.01,77,Wunderground v.1.15,2013-01-02 18:37:00,
2013-01-02 13:42:00,39.0,36.9,30.12,NNE,31,0.0,0.0,92,0.00,,,0.01,76,Wunderground v.1.15,2013-01-02 18:42:00,
2013-01-02 13:47:00,39.1,37.0,30.12,NNE,31,0.0,2.0,92,0.00,,,0.01,84,Wunderground v.1.15,2013-01-02 18:47:00,
2013-01-02 13:52:00,39.1,37.0,30.12,NNE,31,0.0,1.0,92,0.00,,,0.01,95,Wunderground v.1.15,2013-01-02 18:52:00,
2013-01-02 13:57:00,39.1,37.0,30.12,NNE,31,2.0,2.0,92,0.00,,,0.01,102,Wunderground v.1.15,2013-01-02 18:57:00,
2013-01-02 14:02:00,39.1,37.0,30.12,North,360,1.0,4.0,92,0.00,,,0.01,77,Wunderground v.1.15,2013-01-02 19:02:00,
2013-01-02 14:07:00,39.1,37.0,30.11,NNE,13,2.0,4.0,92,0.00,,,0.01,81,Wunderground v.1.15,2013-01-02 19:07:00,
2013-01-02 14:12:00,39.1,37.0,30.11,NNE,13,0.0,2.0,92,0.00,,,0.01,77,Wunderground v.1.15,2013-01-02 19:12:00,
2013-01-02 14:17:00,39.1,37.0,30.11,NNE,13,2.0,2.0,92,0.00,,,0.01,77,Wunderground v.1.15,2013-01-02 19:17:00,
2013-01-02 14:22:00,39.1,37.0,30.11,NNE,13,0.0,2.0,92,0.00,,,0.01,72,Wunderground v.1.15,2013-01-02 19:22:00,
2013-01-02 14:27:00,39.2,37.1,30.12,NNE,13,1.0,3.0,92,0.00,,,0.01,67,Wunderground v.1.15,2013-01-02 19:27:00,
2013-01-02 14:32:00,39.2,37.1,30.12,NNE,13,1.0,2.0,92,0.00,,,0.01,62,Wunderground v.1.15,2013-01-02 19:32:00,
2013-01-02 14:37:00,39.2,37.1,30.12,NNE,13,2.0,2.0,92,0.00,,,0.01,53,Wunderground v.1.15,2013-01-02 19:37:00,
2013-01-02 14:42:00,39.2,37.1,30.13,North,9,0.0,2.0,92,0.00,,,0.01,67,Wunderground v.1.15,2013-01-02 19:42:00,
2013-01-02 14:47:00,39.2,37.1,30.13,North,9,0.0,2.0,92,0.00,,,0.01,63,Wunderground v.1.15,2013-01-02 19:47:00,
2013-01-02 14:52:00,39.2,37.1,30.12,NW,323,1.0,4.0,92,0.00,,,0.01,58,Wunderground v.1.15,2013-01-02 19:52:00,
2013-01-02 14:57:00,39.2,36.8,30.12,NNW,331,1.0,4.0,91,0.00,,,0.01,58,Wunderground v.1.15,2013-01-02 19:57:00,
2013-01-02 15:02:00,39.3,37.2,30.12,NNW,331,1.0,3.0,92,0.00,,,0.01,62,Wunderground v.1.15,2013-01-02 20:02:00,
2013-01-02 15:07:00,39.3,37.2,30.12,WNW,296,1.0,3.0,92,0.00,,,0.01,56,Wunderground v.1.15,2013-01-02 20:07:00,
2013-01-02 15:12:00,39.3,37.2,30.12,WNW,296,1.0,1.0,92,0.00,,,0.01,47,Wunderground v.1.15,2013-01-02 20:12:00,
2013-01-02 15:17:00,39.2,36.8,30.12,WNW,296,1.0,2.0,91,0.00,,,0.01,47,Wunderground v.1.15,2013-01-02 20:17:00,
2013-01-02 15:22:00,39.2,36.8,30.12,WNW,296,2.0,3.0,91,0.00,,,0.01,47,Wunderground v.1.15,2013-01-02 20:22:00,
2013-01-02 15:27:00,39.2,36.8,30.13,WNW,296,2.0,3.0,91,0.00,,,0.01,37,Wunderground v.1.15,2013-01-02 20:27:00,
2013-01-02 15:32:00,39.2,36.8,30.13,WNW,296,0.0,2.0,91,0.00,,,0.01,37,Wunderground v.1.15,2013-01-02 20:32:00,
2013-01-02 15:37:00,39.2,36.8,30.13,NW,320,2.0,3.0,91,0.00,,,0.01,32,Wunderground v.1.15,2013-01-02 20:37:00,
2013-01-02 15:42:00,39.1,36.7,30.13,NW,320,2.0,3.0,91,0.00,,,0.01,35,Wunderground v.1.15,2013-01-02 20:42:00,
2013-01-02 15:47:00,39.1,36.7,30.13,NW,321,2.0,5.0,91,0.00,,,0.01,40,Wunderground v.1.15,2013-01-02 20:47:00,
2013-01-02 15:52:00,39.0,36.6,30.14,NW,317,5.0,5.0,91,0.00,,,0.01,30,Wunderground v.1.15,2013-01-02 20:52:00,
2013-01-02 15:57:00,38.8,36.4,30.14,NNW,329,2.0,5.0,91,0.00,,,0.01,26,Wunderground v.1.15,2013-01-02 20:57:00,
2013-01-02 16:02:00,38.6,36.2,30.13,North,10,2.0,4.0,91,0.00,,,0.01,25,Wunderground v.1.15,2013-01-02 21:02:00,
2013-01-02 16:07:00,38.4,36.0,30.12,North,11,0.0,4.0,91,0.00,,,0.01,21,Wunderground v.1.15,2013-01-02 21:07:00,
2013-01-02 16:13:00,38.3,36.2,30.13,North,11,0.0,1.0,92,0.00,,,0.01,19,Wunderground v.1.15,2013-01-02 21:13:00,
2013-01-02 16:18:00,38.2,36.1,30.13,NNE,33,1.0,3.0,92,0.00,,,0.01,16,Wunderground v.1.15,2013-01-02 21:18:00,
2013-01-02 16:23:00,38.1,36.0,30.14,NNE,33,0.0,0.0,92,0.00,,,0.01,19,Wunderground v.1.15,2013-01-02 21:23:00,
2013-01-02 16:28:00,38.0,35.9,30.14,NNE,33,0.0,2.0,92,0.00,,,0.01,19,Wunderground v.1.15,2013-01-02 21:28:00,
2013-01-02 16:33:00,37.9,36.1,30.15,NW,314,3.0,3.0,93,0.00,,,0.01,19,Wunderground v.1.15,2013-01-02 21:33:00,
2013-01-02 16:38:00,37.8,36.0,30.15,NW,314,0.0,3.0,93,0.00,,,0.01,18,Wunderground v.1.15,2013-01-02 21:38:00,
2013-01-02 16:43:00,37.8,36.0,30.15,NW,314,0.0,1.0,93,0.00,,,0.01,12,Wunderground v.1.15,2013-01-02 21:43:00,
2013-01-02 16:48:00,37.8,36.0,30.15,NW,323,1.0,3.0,93,0.00,,,0.01,11,Wunderground v.1.15,2013-01-02 21:48:00,
2013-01-02 16:53:00,37.7,35.9,30.15,NW,323,0.0,1.0,93,0.00,,,0.01,11,Wunderground v.1.15,2013-01-02 21:53:00,
2013-01-02 16:58:00,37.7,35.9,30.15,NW,323,1.0,1.0,93,0.00,,,0.01,9,Wunderground v.1.15,2013-01-02 21:58:00,
2013-01-02 17:03:00,37.7,35.9,30.15,NW,323,0.0,0.0,93,0.00,,,0.01,9,Wunderground v.1.15,2013-01-02 22:03:00,
2013-01-02 17:08:00,37.7,35.9,30.15,NW,323,0.0,1.0,93,0.00,,,0.01,7,Wunderground v.1.15,2013-01-02 22:08:00,
2013-01-02 17:13:00,37.6,35.8,30.15,NNW,332,0.0,3.0,93,0.00,,,0.01,5,Wunderground v.1.15,2013-01-02 22:13:00,
2013-01-02 17:18:00,37.6,36.0,30.15,North,9,0.0,3.0,94,0.00,,,0.01,0,Wunderground v.1.15,2013-01-02 22:18:00,
2013-01-02 17:23:00,37.5,35.9,30.16,North,5,1.0,2.0,94,0.00,,,0.01,0,Wunderground v.1.15,2013-01-02 22:23:00,
2013-01-02 17:28:00,37.5,35.9,30.16,North,5,0.0,2.0,94,0.00,,,0.01,0,Wunderground v.1.15,2013-01-02 22:28:00,
2013-01-02 17:33:00,37.4,35.8,30.16,North,5,0.0,1.0,94,0.00,,,0.01,0,Wunderground v.1.15,2013-01-02 22:33:00,
2013-01-02 17:38:00,37.4,35.8,30.16,North,10,1.0,2.0,94,0.00,,,0.01,0,Wunderground v.1.15,2013-01-02 22:38:00,
2013-01-02 17:43:00,37.3,35.7,30.15,NNE,14,0.0,2.0,94,0.00,,,0.01,0,Wunderground v.1.15,2013-01-02 22:43:00,
2013-01-02 17:48:00,37.2,35.6,30.16,NNW,332,2.0,5.0,94,0.00,,,0.01,0,Wunderground v.1.15,2013-01-02 22:48:00,
2013-01-02 17:53:00,37.0,35.4,30.16,North,355,2.0,5.0,94,0.00,,,0.01,0,Wunderground v.1.15,2013-01-02 22:53:00,
2013-01-02 17:58:00,36.9,35.3,30.16,NNW,327,4.0,5.0,94,0.00,,,0.01,0,Wunderground v.1.15,2013-01-02 22:58:00,
2013-01-02 18:03:00,36.8,35.2,30.16,NW,318,1.0,5.0,94,0.00,,,0.01,0,Wunderground v.1.15,2013-01-02 23:03:00,
2013-01-02 18:08:00,36.7,35.1,30.15,North,10,0.0,5.0,94,0.00,,,0.01,0,Wunderground v.1.15,2013-01-02 23:08:00,
2013-01-02 18:13:00,36.6,35.0,30.15,North,10,2.0,2.0,94,0.00,,,0.01,0,Wunderground v.1.15,2013-01-02 23:13:00,
2013-01-02 18:18:00,36.6,35.0,30.15,NNE,17,0.0,3.0,94,0.00,,,0.01,0,Wunderground v.1.15,2013-01-02 23:18:00,
2013-01-02 18:23:00,36.6,35.0,30.16,NNE,26,0.0,2.0,94,0.00,,,0.01,0,Wunderground v.1.15,2013-01-02 23:23:00,
2013-01-02 18:28:00,36.5,35.2,30.16,NNE,26,0.0,3.0,95,0.00,,,0.01,0,Wunderground v.1.15,2013-01-02 23:28:00,
2013-01-02 18:33:00,36.5,36.5,30.16,NW,321,3.0,5.0,100,0.00,,,0.01,0,Wunderground v.1.15,2013-01-02 23:33:00,
2013-01-02 18:38:00,36.4,35.1,30.16,NW,321,0.0,5.0,95,0.00,,,0.01,0,Wunderground v.1.15,2013-01-02 23:38:00,
2013-01-02 18:44:00,36.3,35.0,30.17,NW,321,0.0,3.0,95,0.00,,,0.01,0,Wunderground v.1.15,2013-01-02 23:44:00,
2013-01-02 18:49:00,36.3,35.0,30.18,NW,321,0.0,3.0,95,0.00,,,0.01,0,Wunderground v.1.15,2013-01-02 23:49:00,
2013-01-02 18:54:00,36.3,35.0,30.17,NW,318,0.0,3.0,95,0.00,,,0.01,0,Wunderground v.1.15,2013-01-02 23:54:00,
2013-01-02 18:59:00,36.2,34.9,30.18,NW,318,0.0,3.0,95,0.00,,,0.01,0,Wunderground v.1.15,2013-01-02 23:59:00,
2013-01-02 19:04:00,36.2,34.9,30.19,NW,318,0.0,1.0,95,0.00,,,0.01,0,Wunderground v.1.15,2013-01-03 00:04:00,
2013-01-02 19:09:00,36.2,34.9,30.19,NW,318,0.0,1.0,95,0.00,,,0.01,0,Wunderground v.1.15,2013-01-03 00:09:00,
2013-01-02 19:14:00,36.2,34.9,30.19,NW,318,0.0,0.0,95,0.00,,,0.01,0,Wunderground v.1.15,2013-01-03 00:14:00,
2013-01-02 19:19:00,36.2,34.9,30.18,NW,318,0.0,0.0,95,0.00,,,0.01,0,Wunderground v.1.15,2013-01-03 00:19:00,
2013-01-02 19:24:00,36.2,34.9,30.19,NW,318,0.0,0.0,95,0.00,,,0.01,0,Wunderground v.1.15,2013-01-03 00:24:00,
2013-01-02 19:29:00,36.2,34.9,30.18,NW,318,1.0,2.0,95,0.00,,,0.01,0,Wunderground v.1.15,2013-01-03 00:29:00,
2013-01-02 19:34:00,36.2,34.9,30.18,NE,40,0.0,1.0,95,0.00,,,0.01,0,Wunderground v.1.15,2013-01-03 00:34:00,
2013-01-02 19:39:00,36.3,35.3,30.18,NE,40,0.0,1.0,96,0.00,,,0.01,0,Wunderground v.1.15,2013-01-03 00:39:00,
2013-01-02 19:44:00,36.2,35.2,30.19,NE,40,0.0,0.0,96,0.00,,,0.01,0,Wunderground v.1.15,2013-01-03 00:44:00,
2013-01-02 19:49:00,36.3,35.3,30.18,NE,40,0.0,1.0,96,0.00,,,0.01,0,Wunderground v.1.15,2013-01-03 00:49:00,
2013-01-02 19:54:00,36.2,35.2,30.18,ESE,109,0.0,4.0,96,0.00,,,0.01,0,Wunderground v.1.15,2013-01-03 00:54:00,
2013-01-02 19:59:00,36.2,35.2,30.19,ENE,57,0.0,4.0,96,0.00,,,0.01,0,Wunderground v.1.15,2013-01-03 00:59:00,
2013-01-02 20:04:00,36.3,35.3,30.19,NNW,341,0.0,3.0,96,0.00,,,0.01,0,Wunderground v.1.15,2013-01-03 01:04:00,
2013-01-02 20:09:00,36.2,35.2,30.19,NNW,341,0.0,3.0,96,0.00,,,0.01,0,Wunderground v.1.15,2013-01-03 01:09:00,
2013-01-02 20:14:00,36.2,35.2,30.19,NNW,341,0.0,1.0,96,0.00,,,0.01,0,Wunderground v.1.15,2013-01-03 01:14:00,
2013-01-02 20:19:00,36.2,35.2,30.19,NNW,341,0.0,1.0,96,0.00,,,0.01,0,Wunderground v.1.15,2013-01-03 01:19:00,
2013-01-02 20:24:00,36.3,35.3,30.18,NNW,341,0.0,0.0,96,0.00,,,0.01,0,Wunderground v.1.15,2013-01-03 01:24:00,
2013-01-02 20:29:00,36.3,35.3,30.19,NNE,25,0.0,1.0,96,0.00,,,0.01,0,Wunderground v.1.15,2013-01-03 01:29:00,
2013-01-02 20:34:00,36.3,35.3,30.20,NNE,25,0.0,0.0,96,0.00,,,0.01,0,Wunderground v.1.15,2013-01-03 01:34:00,
2013-01-02 20:39:00,36.3,35.3,30.20,NNW,341,0.0,3.0,96,0.00,,,0.01,0,Wunderground v.1.15,2013-01-03 01:39:00,
2013-01-02 20:45:00,36.3,35.3,30.21,NNW,341,0.0,1.0,96,0.00,,,0.01,0,Wunderground v.1.15,2013-01-03 01:45:00,
2013-01-02 20:50:00,36.4,35.4,30.20,NNW,341,0.0,1.0,96,0.00,,,0.01,0,Wunderground v.1.15,2013-01-03 01:50:00,
2013-01-02 20:55:00,36.4,35.4,30.20,NNW,341,0.0,0.0,96,0.00,,,0.01,0,Wunderground v.1.15,2013-01-03 01:55:00,
2013-01-02 21:00:00,36.4,35.4,30.19,NNW,344,0.0,0.0,96,0.00,,,0.01,0,Wunderground v.1.15,2013-01-03 02:00:00,
2013-01-02 21:05:00,36.4,35.4,30.19,NNW,344,0.0,0.0,96,0.00,,,0.01,0,Wunderground v.1.15,2013-01-03 02:05:00,
2013-01-02 21:10:00,36.4,35.4,30.19,NNW,344,0.0,0.0,96,0.00,,,0.01,0,Wunderground v.1.15,2013-01-03 02:10:00,
2013-01-02 21:15:00,36.4,35.4,30.20,NNW,344,0.0,0.0,96,0.00,,,0.01,0,Wunderground v.1.15,2013-01-03 02:15:00,
2013-01-02 21:20:00,36.4,35.4,30.20,NNW,344,0.0,0.0,96,0.00,,,0.01,0,Wunderground v.1.15,2013-01-03 02:20:00,
2013-01-02 21:25:00,36.4,35.4,30.20,NNW,344,0.0,0.0,96,0.00,,,0.01,0,Wunderground v.1.15,2013-01-03 02:25:00,
2013-01-02 21:30:00,36.5,35.5,30.21,NNW,344,0.0,0.0,96,0.00,,,0.01,0,Wunderground v.1.15,2013-01-03 02:30:00,
2013-01-02 21:35:00,36.5,35.5,30.21,NNW,344,0.0,1.0,96,0.00,,,0.01,0,Wunderground v.1.15,2013-01-03 02:35:00,
2013-01-02 21:40:00,36.5,35.5,30.21,NNW,344,0.0,0.0,96,0.00,,,0.01,0,Wunderground v.1.15,2013-01-03 02:40:00,
2013-01-02 21:45:00,36.4,35.4,30.21,NNW,344,0.0,3.0,96,0.00,,,0.01,0,Wunderground v.1.15,2013-01-03 02:45:00,
2013-01-02 21:50:00,36.5,35.5,30.20,East,81,0.0,2.0,96,0.00,,,0.01,0,Wunderground v.1.15,2013-01-03 02:50:00,
2013-01-02 21:55:00,36.5,35.5,30.20,East,81,0.0,2.0,96,0.00,,,0.01,0,Wunderground v.1.15,2013-01-03 02:55:00,
2013-01-02 22:00:00,36.5,35.5,30.20,East,81,0.0,0.0,96,0.00,,,0.01,0,Wunderground v.1.15,2013-01-03 03:00:00,
2013-01-02 22:05:00,36.5,35.5,30.20,East,81,0.0,0.0,96,0.00,,,0.01,0,Wunderground v.1.15,2013-01-03 03:05:00,
2013-01-02 22:10:00,36.5,35.5,30.20,East,81,0.0,0.0,96,0.00,,,0.01,0,Wunderground v.1.15,2013-01-03 03:10:00,
2013-01-02 22:15:00,36.5,35.5,30.20,East,81,0.0,0.0,96,0.00,,,0.01,0,Wunderground v.1.15,2013-01-03 03:15:00,
2013-01-02 22:20:00,36.5,35.5,30.20,East,81,0.0,0.0,96,0.00,,,0.01,0,Wunderground v.1.15,2013-01-03 03:20:00,
2013-01-02 22:26:00,36.5,35.5,30.20,East,81,0.0,0.0,96,0.00,,,0.01,0,Wunderground v.1.15,2013-01-03 03:26:00,
2013-01-02 22:31:00,36.5,35.5,30.20,East,81,0.0,0.0,96,0.00,,,0.01,0,Wunderground v.1.15,2013-01-03 03:31:00,
2013-01-02 22:37:00,36.5,35.7,30.19,East,81,0.0,0.0,97,0.00,,,0.01,0,Wunderground v.1.15,2013-01-03 03:37:00,
2013-01-02 22:42:00,36.5,35.7,30.20,East,81,0.0,0.0,97,0.00,,,0.01,0,Wunderground v.1.15,2013-01-03 03:42:00,
2013-01-02 22:47:00,36.5,35.7,30.20,East,81,0.0,0.0,97,0.00,,,0.01,0,Wunderground v.1.15,2013-01-03 03:47:00,
2013-01-02 22:52:00,36.5,35.7,30.19,East,81,0.0,0.0,97,0.00,,,0.01,0,Wunderground v.1.15,2013-01-03 03:52:00,
2013-01-02 22:57:00,36.5,35.7,30.18,East,81,0.0,1.0,97,0.00,,,0.01,0,Wunderground v.1.15,2013-01-03 03:57:00,
2013-01-02 23:02:00,36.5,35.7,30.19,East,81,0.0,0.0,97,0.00,,,0.01,0,Wunderground v.1.15,2013-01-03 04:02:00,
2013-01-02 23:07:00,36.5,35.7,30.20,NNE,26,0.0,2.0,97,0.00,,,0.01,0,Wunderground v.1.15,2013-01-03 04:07:00,
2013-01-02 23:12:00,36.5,35.7,30.20,NW,325,3.0,4.0,97,0.00,,,0.01,0,Wunderground v.1.15,2013-01-03 04:12:00,
2013-01-02 23:17:00,36.4,35.6,30.19,NNW,348,0.0,4.0,97,0.00,,,0.01,0,Wunderground v.1.15,2013-01-03 04:17:00,
2013-01-02 23:22:00,36.5,35.5,30.19,NNW,348,0.0,1.0,96,0.00,,,0.01,0,Wunderground v.1.15,2013-01-03 04:22:00,
2013-01-02 23:27:00,36.4,35.6,30.19,NNW,348,0.0,1.0,97,0.00,,,0.01,0,Wunderground v.1.15,2013-01-03 04:27:00,
2013-01-02 23:33:00,36.5,35.7,30.19,NNW,348,0.0,0.0,97,0.00,,,0.01,0,Wunderground v.1.15,2013-01-03 04:33:00,
2013-01-02 23:38:00,36.4,35.6,30.19,NNW,348,0.0,0.0,97,0.00,,,0.01,0,Wunderground v.1.15,2013-01-03 04:38:00,
2013-01-02 23:43:00,36.4,35.6,30.20,NNW,348,0.0,1.0,97,0.00,,,0.01,0,Wunderground v.1.15,2013-01-03 04:43:00,
2013-01-02 23:48:00,36.4,35.6,30.21,NNW,348,2.0,3.0,97,0.00,,,0.01,0,Wunderground v.1.15,2013-01-03 04:48:00,
2013-01-02 23:53:00,36.4,35.6,30.21,NW,316,2.0,4.0,97,0.00,,,0.01,0,Wunderground v.1.15,2013-01-03 04:53:00,
2013-01-02 23:58:00,36.4,35.6,30.21,NNW,339,4.0,4.0,97,0.00,,,0.01,0,Wunderground v.1.15,2013-01-03 04:58:00,